General Heriberto Jara International Airport
MMVR : now visible

Airfield :











YOU CAN JOIN US ON...

 
LOGIN :

Register | Disclaimer

   EN    FR    IT 

 









Legend :    VFR   Marginal VFR   IFR   Intensive IFR   Very Intensive IFR
Visi :
Ceiling :
>= 8 km
>= 3000ft
5 to 8 km
1000 to 3000 ft
1500m to 5 km
500 to 1000 ft
800 to 1500m
200 to 500 ft
< 800m
< 200 ft
Symbols :   Thunderstorms  Fog  Heavy snow  Heavy precipitations  Wind > 20 kt






- Airport Elevation : 90 ft
- IATA code : VER


MMVR - General Heriberto Jara International

CURRENT METAR :
  • 011445Z 07002KT 5SM SCT012 27/22 A2996 RMK SLP134 52012 927 8/100 HZY ISOL TCU

EXPIRED METARs :
  • 011343Z 00000KT 4SM SCT012TCU 25/24 A2995 RMK 8/200 BR HZ
  • 011244Z 00000KT 4SM SCT015 23/23 A2993 RMK 8/100 BR HZ ISOL AC

TAF AMD TAF MMVR
Valid from the 01 at 12:00 until the 02 at 06:00 UTC


011211Z 0112/0206 00000KT 3SM BR SCT015 TX32/0120Z TN23/0112Z
TEMPO 0112/0114 BKN010
FM011500 00000KT 5SM HZ SCT020
FM011800 08010KT 6SM HZ SCT025
FM020300 13004KT 5SM HZ SCT015



MET'MAP, your aeronautical weather chart ! - Copyright ORBIFLY December 2007 - Disclaimer

ORBIFLY MET'MAP TEAM :

Programming & Development : Alexandra Zaïnal
Concept & original design : Baudouin d'Aumeries
Assistance for programming : Marc-Olivier Méhu
Technical & hardware support : Manuel Goepfert

Contact : metmap@orbifly.com




SOURCES & CREDITS :

   NOAA       Earth
Advisory